createdAt,value
2022-11-04T00:09:05.438Z,1001.92
2022-11-04T00:24:06.068Z,1001.67
2022-11-04T00:39:06.676Z,1001.66
2022-11-04T00:54:07.870Z,1001.53
2022-11-04T01:09:08.477Z,1001.34
2022-11-04T01:24:09.619Z,1001.14
2022-11-04T01:39:10.732Z,1001.07
2022-11-04T01:54:11.876Z,1001.14
2022-11-04T02:09:12.485Z,1001.01
2022-11-04T02:24:12.597Z,1000.98
2022-11-04T02:39:13.195Z,1000.89
2022-11-04T02:54:13.841Z,1000.72
2022-11-04T03:09:13.980Z,1000.70
2022-11-04T03:24:14.075Z,1000.66
2022-11-04T03:39:14.669Z,1000.74
2022-11-04T03:54:14.794Z,1000.91
2022-11-04T04:09:14.882Z,1000.81
2022-11-04T04:24:15.519Z,1000.98
2022-11-04T04:39:16.121Z,1000.76
2022-11-04T04:54:16.764Z,1000.72
2022-11-04T05:09:17.765Z,1000.92
2022-11-04T05:24:19.131Z,1001.01
2022-11-04T05:39:19.209Z,1001.25
2022-11-04T05:54:20.342Z,1001.37
2022-11-04T06:09:20.286Z,1001.61
2022-11-04T06:24:20.980Z,1001.53
2022-11-04T06:39:22.042Z,1001.89
2022-11-04T06:54:22.526Z,1001.90
2022-11-04T07:09:22.620Z,1002.17
2022-11-04T07:24:23.114Z,1002.28
2022-11-04T07:39:24.937Z,1002.29
2022-11-04T07:54:25.068Z,1002.27
2022-11-04T08:09:25.750Z,1002.13
2022-11-04T08:24:26.234Z,1002.15
2022-11-04T08:39:26.400Z,1002.33
2022-11-04T08:54:26.991Z,1002.55
2022-11-04T09:09:27.107Z,1002.53
2022-11-04T09:24:27.310Z,1002.49
2022-11-04T09:39:28.662Z,1002.28
2022-11-04T09:54:28.669Z,1002.12
2022-11-04T10:09:28.876Z,1002.15
2022-11-04T10:24:29.386Z,1002.65
2022-11-04T10:39:29.658Z,1002.62
2022-11-04T10:54:30.631Z,1002.64
2022-11-04T11:09:30.778Z,1003.16
2022-11-04T11:24:30.847Z,1002.95
2022-11-04T11:39:31.952Z,1003.26
2022-11-04T11:54:31.569Z,1003.36
2022-11-04T12:09:34.420Z,1003.25
2022-11-04T12:24:35.262Z,1003.45
2022-11-04T12:39:36.169Z,1003.40
2022-11-04T12:54:36.284Z,1003.39
2022-11-04T13:09:36.925Z,1003.58
2022-11-04T13:24:36.542Z,1003.81
2022-11-04T13:39:36.623Z,1003.77
2022-11-04T13:54:37.258Z,1003.75
2022-11-04T14:09:36.858Z,1003.77
2022-11-04T14:24:38.725Z,1003.71
2022-11-04T14:39:40.611Z,1003.90
2022-11-04T14:54:41.255Z,1004.04
2022-11-04T15:09:42.848Z,1004.16
2022-11-04T15:24:43.958Z,1004.23
2022-11-04T15:39:44.994Z,1004.31
2022-11-04T15:54:45.104Z,1004.45
2022-11-04T16:09:45.241Z,1004.48
2022-11-04T16:24:46.315Z,1004.56
2022-11-04T16:39:45.952Z,1004.77
2022-11-04T16:54:46.554Z,1004.91
2022-11-04T17:09:47.591Z,1005.01
2022-11-04T17:24:47.234Z,1005.12
2022-11-04T17:39:47.783Z,1005.20
2022-11-04T17:54:48.915Z,1005.34
2022-11-04T18:09:49.073Z,1005.47
2022-11-04T18:24:49.750Z,1005.62
2022-11-04T18:39:49.743Z,1005.71
2022-11-04T18:54:50.339Z,1005.74
2022-11-04T19:09:51.797Z,1005.87
2022-11-04T19:24:51.556Z,1005.89
2022-11-04T19:39:51.990Z,1005.92
2022-11-04T19:54:53.101Z,1005.93
2022-11-04T20:09:52.711Z,1005.90
2022-11-04T20:24:53.412Z,1006.10
2022-11-04T20:39:55.263Z,1006.34
2022-11-04T20:54:55.935Z,1006.36
2022-11-04T21:09:55.535Z,1006.45
2022-11-04T21:24:55.664Z,1006.67
2022-11-04T21:39:56.320Z,1006.71
2022-11-04T21:54:56.908Z,1006.75
2022-11-04T22:09:59.430Z,1006.65
2022-11-04T22:24:59.061Z,1006.84
2022-11-04T22:39:59.206Z,1006.94
2022-11-04T22:54:59.824Z,1007.05
2022-11-04T23:09:59.749Z,1007.23
2022-11-04T23:25:00.424Z,1007.38
2022-11-04T23:40:01.895Z,1007.40
2022-11-04T23:55:02.543Z,1007.51
